createdAt,value
2018-06-29T00:00:22.778Z,16.40
2018-06-29T00:02:50.904Z,16.40
2018-06-29T00:05:19.057Z,16.40
2018-06-29T00:07:47.219Z,16.40
2018-06-29T00:10:26.214Z,16.30
2018-06-29T00:12:54.783Z,16.30
2018-06-29T00:15:23.446Z,16.30
2018-06-29T00:17:51.725Z,16.20
2018-06-29T00:20:19.880Z,16.20
2018-06-29T00:22:48.015Z,16.20
2018-06-29T00:25:16.229Z,16.20
2018-06-29T00:27:44.365Z,16.20
2018-06-29T00:30:12.488Z,16.10
2018-06-29T00:32:40.630Z,16.20
2018-06-29T00:35:08.740Z,16.20
2018-06-29T00:37:36.884Z,16.30
2018-06-29T00:40:05.005Z,16.20
2018-06-29T00:42:33.201Z,16.20
2018-06-29T00:45:01.257Z,16.20
2018-06-29T00:47:29.381Z,16.20
2018-06-29T00:49:57.521Z,16.20
2018-06-29T00:52:25.644Z,16.20
2018-06-29T00:54:53.774Z,16.20
2018-06-29T00:57:21.893Z,16.30
2018-06-29T00:59:50.018Z,16.30
2018-06-29T01:02:18.171Z,16.30
2018-06-29T01:04:46.326Z,16.20
2018-06-29T01:07:14.454Z,16.30
2018-06-29T01:09:42.629Z,16.30
2018-06-29T01:12:10.766Z,16.30
2018-06-29T01:14:38.946Z,16.30
2018-06-29T01:17:07.102Z,16.20
2018-06-29T01:19:35.286Z,16.20
2018-06-29T01:22:03.464Z,16.10
2018-06-29T01:24:31.622Z,16.10
2018-06-29T01:26:59.760Z,16.10
2018-06-29T01:29:27.916Z,16.00
2018-06-29T01:31:56.076Z,16.00
2018-06-29T01:34:24.228Z,16.00
2018-06-29T01:36:52.401Z,16.00
2018-06-29T01:39:20.563Z,16.10
2018-06-29T01:41:48.708Z,16.00
2018-06-29T01:44:16.863Z,16.00
2018-06-29T01:46:45.022Z,16.00
2018-06-29T01:49:13.167Z,16.10
2018-06-29T01:51:41.328Z,16.00
2018-06-29T01:54:09.545Z,16.00
2018-06-29T01:56:37.693Z,16.10
2018-06-29T01:59:05.817Z,16.00
2018-06-29T02:01:33.969Z,16.00
2018-06-29T02:04:02.102Z,16.10
2018-06-29T02:06:30.253Z,16.00
2018-06-29T02:08:58.415Z,16.00
2018-06-29T02:11:26.578Z,16.10
2018-06-29T02:16:22.605Z,16.00
2018-06-29T02:18:50.770Z,16.10
2018-06-29T02:21:18.913Z,15.90
2018-06-29T02:23:47.064Z,15.90
2018-06-29T02:26:15.233Z,15.90
2018-06-29T02:28:43.377Z,15.90
2018-06-29T02:31:11.539Z,15.90
2018-06-29T02:33:39.665Z,16.00
2018-06-29T02:36:07.811Z,15.90
2018-06-29T02:38:35.933Z,15.90
2018-06-29T02:41:04.083Z,15.90
2018-06-29T02:43:32.210Z,15.90
2018-06-29T02:46:00.345Z,15.90
2018-06-29T02:48:28.462Z,15.90
2018-06-29T02:50:56.639Z,15.90
2018-06-29T02:53:24.854Z,15.90
2018-06-29T02:55:53.005Z,15.90
2018-06-29T02:58:21.158Z,15.90
2018-06-29T03:00:49.288Z,16.00
2018-06-29T03:03:17.400Z,16.00
2018-06-29T03:05:45.553Z,16.00
2018-06-29T03:08:13.667Z,16.10
2018-06-29T03:10:41.802Z,16.10
2018-06-29T03:13:09.924Z,16.10
2018-06-29T03:15:38.046Z,16.10
2018-06-29T03:18:06.202Z,16.20
2018-06-29T03:20:34.326Z,16.20
2018-06-29T03:23:02.479Z,16.20
2018-06-29T03:25:30.613Z,16.20
2018-06-29T03:27:58.761Z,16.10
2018-06-29T03:30:26.893Z,16.10
2018-06-29T03:35:22.932Z,16.10
2018-06-29T03:37:51.076Z,16.20
2018-06-29T03:40:19.273Z,16.20
2018-06-29T03:42:47.352Z,16.20
2018-06-29T03:47:43.389Z,16.20
2018-06-29T03:52:39.457Z,16.20
2018-06-29T03:55:07.606Z,16.20
2018-06-29T03:57:35.765Z,16.20
2018-06-29T04:00:03.925Z,16.20
2018-06-29T04:02:32.105Z,16.30
2018-06-29T04:05:00.263Z,16.20
2018-06-29T04:07:28.429Z,16.30
2018-06-29T04:09:56.584Z,16.20
2018-06-29T04:12:24.746Z,16.30
2018-06-29T04:14:52.885Z,16.30
2018-06-29T04:17:21.046Z,16.40
2018-06-29T04:19:49.169Z,16.40
2018-06-29T04:22:17.301Z,16.40
2018-06-29T04:27:13.377Z,16.40
2018-06-29T04:29:41.508Z,16.40
2018-06-29T04:32:09.637Z,16.40
2018-06-29T04:34:37.785Z,16.40
2018-06-29T04:37:05.965Z,16.40
2018-06-29T04:39:34.118Z,16.50
2018-06-29T04:42:02.246Z,16.50
2018-06-29T04:44:30.394Z,16.50
2018-06-29T04:46:58.529Z,16.50
2018-06-29T04:49:26.711Z,16.50
2018-06-29T04:51:54.861Z,17.00
2018-06-29T04:54:23.013Z,17.40
2018-06-29T04:56:51.136Z,16.80
2018-06-29T04:59:19.282Z,16.70
2018-06-29T05:01:47.425Z,16.70
2018-06-29T05:04:15.605Z,16.70
2018-06-29T05:06:43.781Z,16.70
2018-06-29T05:09:11.915Z,16.90
2018-06-29T05:11:40.042Z,17.20
2018-06-29T05:14:08.241Z,17.30
2018-06-29T05:16:36.405Z,17.70
2018-06-29T05:19:04.695Z,18.40
2018-06-29T05:21:32.854Z,19.10
2018-06-29T05:24:01.001Z,19.70
2018-06-29T05:26:29.258Z,19.90
2018-06-29T05:28:57.405Z,20.10
2018-06-29T05:31:25.608Z,20.00
2018-06-29T05:33:53.773Z,19.60
2018-06-29T05:36:21.930Z,19.10
2018-06-29T05:38:50.094Z,19.00
2018-06-29T05:41:18.241Z,18.90
2018-06-29T05:46:14.322Z,18.40
2018-06-29T05:48:42.442Z,18.30
2018-06-29T05:51:10.598Z,18.30
2018-06-29T05:53:38.772Z,18.30
2018-06-29T05:56:06.966Z,18.20
2018-06-29T05:58:35.107Z,18.10
2018-06-29T06:01:03.692Z,18.10
2018-06-29T06:03:31.846Z,18.00
2018-06-29T06:05:59.994Z,18.10
2018-06-29T06:08:28.214Z,18.20
2018-06-29T06:10:56.394Z,18.30
2018-06-29T06:13:24.612Z,18.50
2018-06-29T06:15:52.717Z,18.40
2018-06-29T06:18:20.890Z,18.30
2018-06-29T06:20:49.061Z,18.30
2018-06-29T06:23:20.339Z,18.40
2018-06-29T06:25:48.557Z,18.50
2018-06-29T06:28:17.406Z,18.50
2018-06-29T06:30:45.584Z,18.50
2018-06-29T06:33:13.808Z,18.60
2018-06-29T06:38:10.238Z,19.00
2018-06-29T06:40:38.406Z,19.40
2018-06-29T06:43:06.622Z,19.50
2018-06-29T06:45:34.783Z,19.30
2018-06-29T06:48:03.910Z,19.50
2018-06-29T06:50:32.141Z,19.50
2018-06-29T06:53:00.325Z,19.80
2018-06-29T06:55:28.506Z,20.20
2018-06-29T06:57:56.706Z,20.40
2018-06-29T07:00:24.876Z,20.70
2018-06-29T07:02:53.035Z,20.90
2018-06-29T07:05:21.207Z,21.90
2018-06-29T07:07:49.377Z,22.70
2018-06-29T07:10:17.567Z,22.20
2018-06-29T07:12:45.848Z,21.30
2018-06-29T07:15:13.988Z,21.30
2018-06-29T07:17:43.084Z,20.60
2018-06-29T07:20:11.337Z,20.60
2018-06-29T07:22:39.485Z,20.60
2018-06-29T07:25:07.618Z,20.50
2018-06-29T07:27:37.433Z,20.50
2018-06-29T07:30:07.014Z,20.40
2018-06-29T07:32:35.257Z,20.10
2018-06-29T07:35:03.458Z,20.10
2018-06-29T07:37:31.656Z,20.00
2018-06-29T07:40:00.470Z,19.70
2018-06-29T07:42:28.670Z,19.70
2018-06-29T07:44:56.817Z,19.90
2018-06-29T07:47:24.981Z,20.10
2018-06-29T07:49:53.126Z,20.10
2018-06-29T07:52:21.290Z,20.30
2018-06-29T07:54:49.455Z,20.40
2018-06-29T07:57:17.633Z,20.80
2018-06-29T07:59:45.806Z,21.40
2018-06-29T08:02:14.017Z,21.80
2018-06-29T08:04:42.180Z,21.90
2018-06-29T08:07:10.354Z,21.50
2018-06-29T08:09:38.512Z,21.50
2018-06-29T08:12:06.671Z,21.30
2018-06-29T08:14:34.848Z,21.30
2018-06-29T08:17:03.005Z,21.10
2018-06-29T08:19:31.148Z,21.10
2018-06-29T08:24:32.666Z,21.00
2018-06-29T08:27:00.834Z,20.90
2018-06-29T08:29:28.962Z,20.80
2018-06-29T08:31:57.109Z,21.10
2018-06-29T08:34:25.245Z,20.80
2018-06-29T08:36:53.374Z,21.00
2018-06-29T08:41:49.450Z,21.00
2018-06-29T08:44:17.611Z,21.00
2018-06-29T08:46:45.748Z,21.00
2018-06-29T08:49:13.882Z,21.00
2018-06-29T08:51:42.033Z,20.90
2018-06-29T08:54:10.169Z,21.00
2018-06-29T08:56:38.301Z,20.90
2018-06-29T08:59:06.467Z,20.90
2018-06-29T09:01:34.601Z,20.90
2018-06-29T09:04:02.731Z,21.00
2018-06-29T09:06:30.930Z,21.20
2018-06-29T09:08:59.111Z,21.80
2018-06-29T09:11:27.265Z,22.10
2018-06-29T09:13:55.437Z,22.00
2018-06-29T09:16:23.603Z,21.90
2018-06-29T09:18:51.794Z,22.30
2018-06-29T09:21:19.957Z,22.30
2018-06-29T09:23:48.141Z,22.30
2018-06-29T09:26:16.317Z,22.20
2018-06-29T09:28:44.532Z,22.10
2018-06-29T09:31:12.693Z,21.80
2018-06-29T09:33:40.878Z,22.00
2018-06-29T09:36:09.004Z,22.10
2018-06-29T09:38:37.162Z,21.90
2018-06-29T09:41:05.325Z,21.80
2018-06-29T09:43:33.513Z,21.90
2018-06-29T09:46:01.664Z,21.90
2018-06-29T09:48:29.847Z,21.90
2018-06-29T09:50:58.017Z,21.90
2018-06-29T09:53:26.195Z,21.90
2018-06-29T09:55:54.333Z,22.20
2018-06-29T09:58:22.506Z,22.10
2018-06-29T10:00:55.411Z,22.50
2018-06-29T10:03:18.852Z,22.60
2018-06-29T10:05:46.994Z,23.60
2018-06-29T10:08:15.144Z,23.60
2018-06-29T10:10:43.397Z,23.70
2018-06-29T10:13:11.587Z,23.90
2018-06-29T10:15:39.737Z,23.50
2018-06-29T10:18:07.913Z,23.40
2018-06-29T10:20:36.342Z,23.70
2018-06-29T10:23:04.504Z,24.00
2018-06-29T10:25:32.684Z,23.70
2018-06-29T10:28:00.965Z,24.80
2018-06-29T10:30:29.301Z,25.60
2018-06-29T10:32:57.493Z,25.70
2018-06-29T10:35:25.898Z,25.30
2018-06-29T10:37:54.381Z,25.40
2018-06-29T10:40:23.289Z,25.60
2018-06-29T10:42:51.469Z,26.00
2018-06-29T10:45:19.702Z,26.70
2018-06-29T10:47:47.865Z,27.00
2018-06-29T10:50:16.028Z,27.70
2018-06-29T10:52:44.208Z,28.60
2018-06-29T10:55:12.350Z,27.80
2018-06-29T10:57:40.488Z,27.30
2018-06-29T11:00:08.680Z,27.90
2018-06-29T11:02:37.190Z,27.70
2018-06-29T11:05:05.434Z,27.80
2018-06-29T11:07:33.594Z,27.50
2018-06-29T11:10:01.782Z,28.70
2018-06-29T11:12:29.950Z,28.40
2018-06-29T11:14:58.114Z,28.10
2018-06-29T11:17:26.361Z,28.60
2018-06-29T11:19:54.509Z,27.50
2018-06-29T11:22:22.667Z,28.40
2018-06-29T11:24:50.805Z,29.10
2018-06-29T11:27:19.355Z,29.60
2018-06-29T11:29:47.509Z,29.10
2018-06-29T11:32:15.688Z,29.30
2018-06-29T11:34:43.830Z,29.50
2018-06-29T11:37:12.445Z,29.80
2018-06-29T11:39:40.585Z,28.90
2018-06-29T11:42:08.758Z,28.80
2018-06-29T11:44:36.921Z,28.50
2018-06-29T11:47:05.097Z,29.00
2018-06-29T11:49:33.549Z,29.60
2018-06-29T11:52:02.120Z,29.90
2018-06-29T11:54:30.566Z,28.70
2018-06-29T11:56:59.028Z,28.60
2018-06-29T11:59:28.342Z,28.60
2018-06-29T12:01:57.057Z,27.70
2018-06-29T12:04:25.572Z,27.50
2018-06-29T12:06:54.107Z,27.70
2018-06-29T12:09:22.613Z,27.90
2018-06-29T12:11:51.152Z,28.50
2018-06-29T12:14:19.609Z,28.50
2018-06-29T12:16:48.025Z,28.70
2018-06-29T12:19:16.474Z,28.00
2018-06-29T12:21:44.897Z,28.10
2018-06-29T12:24:13.285Z,27.90
2018-06-29T12:29:09.803Z,28.90
2018-06-29T12:31:38.205Z,29.10
2018-06-29T12:34:06.609Z,30.10
2018-06-29T12:36:35.011Z,28.60
2018-06-29T12:39:03.466Z,28.40
2018-06-29T12:41:31.939Z,28.20
2018-06-29T12:44:00.089Z,29.20
2018-06-29T12:46:28.243Z,28.70
2018-06-29T12:48:56.493Z,28.80
2018-06-29T12:51:25.485Z,28.90
2018-06-29T12:53:53.702Z,28.70
2018-06-29T12:56:21.866Z,28.80
2018-06-29T12:59:14.307Z,28.80
2018-06-29T13:01:42.621Z,29.10
2018-06-29T13:04:10.798Z,28.90
2018-06-29T13:06:38.978Z,28.20
2018-06-29T13:09:08.610Z,27.70
2018-06-29T13:11:36.774Z,28.20
2018-06-29T13:14:05.169Z,28.20
2018-06-29T13:16:33.615Z,28.90
2018-06-29T13:19:02.093Z,28.70
2018-06-29T13:21:30.293Z,28.50
2018-06-29T13:24:19.001Z,28.50
2018-06-29T13:26:47.209Z,28.50
2018-06-29T13:29:15.353Z,28.00
2018-06-29T13:31:43.524Z,28.90
2018-06-29T13:34:11.859Z,29.10
2018-06-29T13:36:47.181Z,28.80
2018-06-29T13:39:15.365Z,28.60
2018-06-29T13:41:43.469Z,28.90
2018-06-29T13:44:11.659Z,28.50
2018-06-29T13:46:39.982Z,29.40
2018-06-29T13:49:08.144Z,28.70
2018-06-29T13:51:36.283Z,28.80
2018-06-29T13:54:04.473Z,28.60
2018-06-29T13:56:32.613Z,28.20
2018-06-29T13:59:00.765Z,27.80
2018-06-29T14:01:29.200Z,28.10
2018-06-29T14:03:57.349Z,28.50
2018-06-29T14:06:25.490Z,28.50
2018-06-29T14:08:54.558Z,28.20
2018-06-29T14:11:22.958Z,28.00
2018-06-29T14:13:51.454Z,28.00
2018-06-29T14:16:19.753Z,28.30
2018-06-29T14:18:48.286Z,28.90
2018-06-29T14:21:16.720Z,29.10
2018-06-29T14:26:12.905Z,28.20
2018-06-29T14:28:41.060Z,28.20
2018-06-29T14:31:09.189Z,28.30
2018-06-29T14:33:37.343Z,28.80
2018-06-29T14:36:07.126Z,28.40
2018-06-29T14:38:39.982Z,28.30
2018-06-29T14:41:11.508Z,28.30
2018-06-29T14:43:39.756Z,28.10
2018-06-29T14:46:14.239Z,28.30
2018-06-29T14:48:45.601Z,28.30
2018-06-29T14:51:16.475Z,28.30
2018-06-29T14:53:47.840Z,28.30
2018-06-29T14:56:18.573Z,28.30
2018-06-29T14:58:46.723Z,28.10
2018-06-29T15:01:14.866Z,28.10
2018-06-29T15:03:42.990Z,28.10
2018-06-29T15:06:11.197Z,28.10
2018-06-29T15:08:39.341Z,28.10
2018-06-29T15:11:10.768Z,28.00
2018-06-29T15:13:38.929Z,28.00
2018-06-29T15:16:07.096Z,28.20
2018-06-29T15:18:52.437Z,27.40
2018-06-29T15:21:30.137Z,27.50
2018-06-29T15:23:58.941Z,27.20
2018-06-29T15:26:27.237Z,27.20
2018-06-29T15:28:55.438Z,27.30
2018-06-29T15:31:23.595Z,27.20
2018-06-29T15:33:51.766Z,27.10
2018-06-29T15:36:19.919Z,27.10
2018-06-29T15:38:48.081Z,27.10
2018-06-29T15:41:16.251Z,27.10
2018-06-29T15:43:44.397Z,26.90
2018-06-29T15:46:12.609Z,26.80
2018-06-29T15:48:40.737Z,26.80
2018-06-29T15:53:37.066Z,27.30
2018-06-29T15:56:05.328Z,27.60
2018-06-29T15:58:33.775Z,27.70
2018-06-29T16:01:02.131Z,27.90
2018-06-29T16:03:30.448Z,28.00
2018-06-29T16:05:58.741Z,28.00
2018-06-29T16:08:27.018Z,27.90
2018-06-29T16:10:55.464Z,27.70
2018-06-29T16:13:23.822Z,27.90
2018-06-29T16:15:52.153Z,27.70
2018-06-29T16:18:20.434Z,27.70
2018-06-29T16:20:48.917Z,27.80
2018-06-29T16:23:19.323Z,27.80
2018-06-29T16:25:47.530Z,27.70
2018-06-29T16:28:16.185Z,27.60
2018-06-29T16:30:44.577Z,27.60
2018-06-29T16:33:12.767Z,27.50
2018-06-29T16:38:09.152Z,27.40
2018-06-29T16:40:37.506Z,27.30
2018-06-29T16:43:05.773Z,27.00
2018-06-29T16:45:33.975Z,27.00
2018-06-29T16:48:02.137Z,26.90
2018-06-29T16:50:30.369Z,26.90
2018-06-29T16:52:59.497Z,27.10
2018-06-29T16:55:27.659Z,27.20
2018-06-29T16:57:55.917Z,27.20
2018-06-29T17:00:24.085Z,27.20
2018-06-29T17:02:52.246Z,27.20
2018-06-29T17:05:20.374Z,27.00
2018-06-29T17:07:48.521Z,27.00
2018-06-29T17:10:16.670Z,27.00
2018-06-29T17:12:44.881Z,27.00
2018-06-29T17:15:13.250Z,26.90
2018-06-29T17:17:42.293Z,26.90
2018-06-29T17:20:10.434Z,26.90
2018-06-29T17:22:38.677Z,26.80
2018-06-29T17:25:06.861Z,26.80
2018-06-29T17:27:34.929Z,26.80
2018-06-29T17:30:03.184Z,26.70
2018-06-29T17:32:31.345Z,26.80
2018-06-29T17:37:28.227Z,26.70
2018-06-29T17:39:56.361Z,26.60
2018-06-29T17:42:24.517Z,26.70
2018-06-29T17:44:52.770Z,26.60
2018-06-29T17:47:20.933Z,26.50
2018-06-29T17:49:49.117Z,26.40
2018-06-29T17:52:17.277Z,26.40
2018-06-29T17:57:13.817Z,26.60
2018-06-29T17:59:42.043Z,26.50
2018-06-29T18:04:38.568Z,26.50
2018-06-29T18:07:07.612Z,26.40
2018-06-29T18:09:35.973Z,26.30
2018-06-29T18:12:04.786Z,26.30
2018-06-29T18:14:33.154Z,26.30
2018-06-29T18:17:02.350Z,26.40
2018-06-29T18:19:30.726Z,26.20
2018-06-29T18:21:59.258Z,26.20
2018-06-29T18:24:27.647Z,26.30
2018-06-29T18:26:55.973Z,26.20
2018-06-29T18:29:24.831Z,26.20
2018-06-29T18:31:53.106Z,26.00
2018-06-29T18:34:21.275Z,26.00
2018-06-29T18:36:49.431Z,25.80
2018-06-29T18:39:17.546Z,25.80
2018-06-29T18:41:46.061Z,25.70
2018-06-29T18:44:14.818Z,25.60
2018-06-29T18:46:43.131Z,25.50
2018-06-29T18:49:11.504Z,25.40
2018-06-29T18:51:39.970Z,25.40
2018-06-29T18:54:08.816Z,25.30
2018-06-29T18:56:37.265Z,25.20
2018-06-29T18:59:05.721Z,25.20
2018-06-29T19:01:35.113Z,25.00
2018-06-29T19:04:03.822Z,25.00
2018-06-29T19:06:32.134Z,24.60
2018-06-29T19:09:00.723Z,24.40
2018-06-29T19:11:29.160Z,24.40
2018-06-29T19:16:25.543Z,24.00
2018-06-29T19:18:54.860Z,23.60
2018-06-29T19:21:23.250Z,23.60
2018-06-29T19:23:51.573Z,23.50
2018-06-29T19:26:19.981Z,23.40
2018-06-29T19:28:48.419Z,23.20
2018-06-29T19:31:16.919Z,23.10
2018-06-29T19:33:45.592Z,23.00
2018-06-29T19:36:14.050Z,22.80
2018-06-29T19:38:42.215Z,22.60
2018-06-29T19:41:11.937Z,22.30
2018-06-29T19:43:40.389Z,22.20
2018-06-29T19:46:08.807Z,22.20
2018-06-29T19:48:37.156Z,22.10
2018-06-29T19:51:05.739Z,22.10
2018-06-29T19:53:34.081Z,22.00
2018-06-29T19:56:02.547Z,22.00
2018-06-29T19:58:30.830Z,21.90
2018-06-29T20:00:59.417Z,21.70
2018-06-29T20:03:27.556Z,21.60
2018-06-29T20:05:55.817Z,21.50
2018-06-29T20:08:24.005Z,21.50
2018-06-29T20:10:52.242Z,21.40
2018-06-29T20:13:20.398Z,21.40
2018-06-29T20:15:48.719Z,21.30
2018-06-29T20:18:16.998Z,21.10
2018-06-29T20:20:45.157Z,21.00
2018-06-29T20:23:13.301Z,20.90
2018-06-29T20:25:41.445Z,20.90
2018-06-29T20:28:10.177Z,20.90
2018-06-29T20:30:38.696Z,20.70
2018-06-29T20:33:06.922Z,20.70
2018-06-29T20:35:35.081Z,20.60
2018-06-29T20:38:03.262Z,20.50
2018-06-29T20:40:32.114Z,20.50
2018-06-29T20:43:00.272Z,20.50
2018-06-29T20:45:28.469Z,20.40
2018-06-29T20:47:56.613Z,20.40
2018-06-29T20:50:24.773Z,20.20
2018-06-29T20:52:53.013Z,20.20
2018-06-29T20:55:21.196Z,20.10
2018-06-29T20:57:49.641Z,20.00
2018-06-29T21:00:18.312Z,19.90
2018-06-29T21:02:46.873Z,19.90
2018-06-29T21:05:15.475Z,19.80
2018-06-29T21:07:43.884Z,19.80
2018-06-29T21:10:12.088Z,19.70
2018-06-29T21:12:40.293Z,19.70
2018-06-29T21:15:08.547Z,19.70
2018-06-29T21:17:36.729Z,19.70
2018-06-29T21:20:04.859Z,19.60
2018-06-29T21:22:33.788Z,19.60
2018-06-29T21:25:02.278Z,19.60
2018-06-29T21:27:30.528Z,19.50
2018-06-29T21:29:58.690Z,19.40
2018-06-29T21:32:27.198Z,19.30
2018-06-29T21:34:56.392Z,19.20
2018-06-29T21:37:25.878Z,19.10
2018-06-29T21:39:55.729Z,19.10
2018-06-29T21:42:23.950Z,19.00
2018-06-29T21:44:52.249Z,19.00
2018-06-29T21:47:20.400Z,19.00
2018-06-29T21:49:48.567Z,19.00
2018-06-29T21:52:18.546Z,18.90
2018-06-29T21:54:47.882Z,18.80
2018-06-29T21:57:18.099Z,18.80
2018-06-29T21:59:46.330Z,18.80
2018-06-29T22:02:14.587Z,18.70
2018-06-29T22:04:42.804Z,18.60
2018-06-29T22:07:11.035Z,18.50
2018-06-29T22:09:40.295Z,18.50
2018-06-29T22:12:08.476Z,18.40
2018-06-29T22:14:36.602Z,18.40
2018-06-29T22:17:04.881Z,18.40
2018-06-29T22:19:33.141Z,18.40
2018-06-29T22:22:01.329Z,18.30
2018-06-29T22:24:30.328Z,18.30
2018-06-29T22:26:58.520Z,18.20
2018-06-29T22:29:26.757Z,18.30
2018-06-29T22:31:54.909Z,18.20
2018-06-29T22:34:23.085Z,18.10
2018-06-29T22:36:51.533Z,18.00
2018-06-29T22:39:19.665Z,17.90
2018-06-29T22:41:47.806Z,17.80
2018-06-29T22:46:43.866Z,17.70
2018-06-29T22:49:12.099Z,17.70
2018-06-29T22:51:40.210Z,17.70
2018-06-29T22:54:08.354Z,17.70
2018-06-29T22:56:36.474Z,17.60
2018-06-29T22:59:04.710Z,17.60
2018-06-29T23:01:33.141Z,17.60
2018-06-29T23:04:01.273Z,17.60
2018-06-29T23:06:29.399Z,17.60
2018-06-29T23:08:57.538Z,17.60
2018-06-29T23:11:25.800Z,17.60
2018-06-29T23:13:53.998Z,17.60
2018-06-29T23:18:56.094Z,17.50
2018-06-29T23:21:24.225Z,17.50
2018-06-29T23:23:52.377Z,17.40
2018-06-29T23:26:20.514Z,17.30
2018-06-29T23:28:48.654Z,17.30
2018-06-29T23:31:16.790Z,17.30
2018-06-29T23:33:44.929Z,17.30
2018-06-29T23:36:13.071Z,17.40
2018-06-29T23:38:41.201Z,17.30
2018-06-29T23:41:09.353Z,17.20
2018-06-29T23:43:37.491Z,17.00
2018-06-29T23:46:05.633Z,16.90
2018-06-29T23:48:33.776Z,16.90
2018-06-29T23:51:01.909Z,16.80
2018-06-29T23:53:30.061Z,16.80
2018-06-29T23:55:58.194Z,16.80
2018-06-29T23:58:26.306Z,16.80
